This is the latest recevied weather packets stored in our database for station/object WX7EM. If no packets are shown the sender has not sent any weather packets the latest 1 day(s).
| Time | Temp. | Humidity | Pressure | Rain* | Wind** | Luminosity | Snow |
|---|---|---|---|---|---|---|---|
| 1836274571 | 18.89° C | 69% | 1020 hPa | 0 mm | 0 m/s | 0 W/m² | - |
| 1836274425 | 18.33° C | 71% | 1020.3 hPa | 0 mm | 0 m/s | 0 W/m² | - |
| 1836274270 | 18.89° C | 69% | 1019.9 hPa | 0 mm | 0 m/s | 0 W/m² | - |
| 1836274124 | 18.33° C | 70% | 1020.2 hPa | 0 mm | 0 m/s | 0 W/m² | - |
| 1836273969 | 18.89° C | 68% | 1019.7 hPa | 0 mm | 0 m/s | 0 W/m² | - |
| 1778062053 | 8.89° C | 99% | 1017.5 hPa | 0 mm | 0 m/s | 0 W/m² | - |
| 1778061751 | 8.89° C | 99% | 1017.8 hPa | 0 mm | 0 m/s | 0 W/m² | - |
| 1778061450 | 8.89° C | 99% | 1017.4 hPa | 0 mm | 0 m/s | 0 W/m² | - |
| 1778061146 | 8.89° C | 99% | 1017.6 hPa | 0 mm | 0 m/s | 0 W/m² | - |
| 1778060843 | 8.89° C | 99% | 1017.3 hPa | 0 mm | 0 m/s | 0 W/m² | - |
| 1778060541 | 8.89° C | 99% | 1017.5 hPa | 0 mm | 0 m/s | 0 W/m² | - |
| 1778060240 | 8.89° C | 99% | 1017.3 hPa | 0 mm | 0 m/s | 0 W/m² | - |
| 1778059936 | 8.89° C | 99% | 1017.4 hPa | 0 mm | 0 m/s | 0 W/m² | - |
| 1778059634 | 9.44° C | 99% | 1017.3 hPa | 0 mm | 0 m/s | 0 W/m² | - |
| 1778059331 | 9.44° C | 99% | 1017.2 hPa | 0 mm | 0.45 m/s, 158° | 0 W/m² | - |
| 1778059029 | 9.44° C | 99% | 1017.1 hPa | 0 mm | 0 m/s | 0 W/m² | - |
| 1778058726 | 10° C | 99% | 1017.1 hPa | 0 mm | 0 m/s | 0 W/m² | - |
| 1778058424 | 10° C | 99% | 1017.2 hPa | 0 mm | 0 m/s | 0 W/m² | - |
| 1778058120 | 10° C | 99% | 1017.2 hPa | 0 mm | 0 m/s | 0 W/m² | - |
| 1778057818 | 9.44° C | 99% | 1017.1 hPa | 0 mm | 0.45 m/s, 140° | 0 W/m² | - |
| 1778057513 | 9.44° C | 99% | 1017 hPa | 0 mm | 0 m/s | 0 W/m² | - |
| 1778057210 | 9.44° C | 99% | 1017.2 hPa | 0 mm | 0 m/s | 0 W/m² | - |
| 1778056907 | 10° C | 99% | 1017.2 hPa | 0 mm | 0 m/s | 0 W/m² | - |
| 1778056604 | 10° C | 99% | 1017 hPa | 0 mm | 0 m/s | 0 W/m² | - |
| 1778056302 | 10° C | 99% | 1017 hPa | 0 mm | 0 m/s | 0 W/m² | - |
* Rain latest hour (hover to see other rain measurements)
** Current wind speed in m/s (hover to see current wind gust speed)